»·PEaware :: WAT570 KDEN-KSFO

WAT570 :: KDEN-KSFO

FLIGHT INFORMATION

Flight Status: Arrived
Operator:
Walker Air Transport
More flights by this operator :: More flights under this callsign
Pilot: Brian N. (26816)
Aircraft: BOEING 737-600
(B736)
More flights by this aircraft type
Origin: KDEN Denver Intl
United States
Destination: KSFO San Francisco Intl
United States
More flights between these airports :: More routes between these airports
Route: COORZ6 VOAXA Q136 ELLFF WEEMN Q136 RUMPS INYOE DYAMD5
File this flight plan on PilotEdge
Remarks: RMK / SIMBRIEF
Altitude:
(Current/Filed)
38,000ft
Speed:
(Current/Filed)
467kts
Departed: 20-Feb-21 04:27 PM
Arrived: 20-Feb-21 06:53 PM
Distance/Time
Traveled:
838nm/2:26
Distance/Time
To Go:
Arrived

Flight Plot

Page will automatically refresh every two minutes.

Flight plan parsing failed; only flown route is shown


Map Options




Map Legend


Flown Route
Filed Route
Departure Airport
Arrival Airport
Navaid (VOR, NDB)
Fix

Horizontal Profiles

Position Reports

Time Latitude Longitude Heading Altitude Ground
Speed
20-Feb-21 16:01 39.853412 -104.666827 271 5442ft 0kts
20-Feb-21 16:02 39.853412 -104.666827 271 5442ft 0kts
20-Feb-21 16:03 39.853412 -104.666827 271 5442ft 0kts
20-Feb-21 16:04 39.853412 -104.666827 271 5442ft 0kts
20-Feb-21 16:05 39.853412 -104.666827 271 5442ft 0kts
20-Feb-21 16:06 39.853412 -104.666827 271 5442ft 0kts
20-Feb-21 16:07 39.853412 -104.666827 271 5442ft 0kts
20-Feb-21 16:08 39.853412 -104.666827 271 5442ft 0kts
20-Feb-21 16:09 39.853412 -104.666827 271 5442ft 0kts
20-Feb-21 16:10 39.853412 -104.666827 271 5442ft 0kts
20-Feb-21 16:11 39.853412 -104.666827 271 5442ft 0kts
20-Feb-21 16:12 39.853412 -104.666827 271 5442ft 0kts
20-Feb-21 16:13 39.853412 -104.666827 271 5442ft 0kts
20-Feb-21 16:14 39.853412 -104.666827 271 5442ft 0kts
20-Feb-21 16:15 39.853412 -104.666827 271 5442ft 0kts
20-Feb-21 16:16 39.853412 -104.666827 271 5442ft 0kts
20-Feb-21 16:17 39.853412 -104.666827 271 5442ft 0kts
20-Feb-21 16:18 39.853412 -104.666827 271 5442ft 0kts
20-Feb-21 16:19 39.853412 -104.666827 271 5442ft 0kts
20-Feb-21 16:20 39.853412 -104.666840 271 5442ft 1kts
20-Feb-21 16:21 39.852790 -104.673296 271 5442ft 23kts
20-Feb-21 16:22 39.853080 -104.683141 271 5442ft 21kts
20-Feb-21 16:23 39.844796 -104.684148 176 5442ft 34kts
20-Feb-21 16:24 39.841903 -104.684163 180 5442ft 0kts
20-Feb-21 16:25 39.840640 -104.686070 269 5442ft 37kts
20-Feb-21 16:26 39.841537 -104.733924 277 6560ft 165kts
20-Feb-21 16:27 39.842130 -104.802478 274 8023ft 229kts
20-Feb-21 16:28 39.842755 -104.898922 272 9648ft 289kts
20-Feb-21 16:29 39.845507 -105.005962 272 12529ft 313kts
20-Feb-21 16:30 39.848251 -105.123557 270 15661ft 329kts
20-Feb-21 16:31 39.850878 -105.243534 268 18885ft 335kts
20-Feb-21 16:32 39.853691 -105.367103 268 21671ft 347kts
20-Feb-21 16:33 39.856312 -105.494842 267 24089ft 360kts
20-Feb-21 16:34 39.858781 -105.626188 266 26555ft 363kts
20-Feb-21 16:35 39.858114 -105.757442 260 28749ft 362kts
20-Feb-21 16:36 39.845984 -105.887689 259 30713ft 361kts
20-Feb-21 16:37 39.834513 -106.014298 259 33150ft 342kts
20-Feb-21 16:38 39.823978 -106.134442 260 35129ft 329kts
20-Feb-21 16:39 39.813905 -106.253086 260 36250ft 331kts
20-Feb-21 16:40 39.802952 -106.372163 260 37270ft 332kts
20-Feb-21 16:42 39.791836 -106.491750 260 37909ft 338kts
20-Feb-21 16:43 39.779141 -106.615418 259 37912ft 347kts
20-Feb-21 16:44 39.765489 -106.737782 259 37910ft 346kts
20-Feb-21 16:45 39.751567 -106.861732 259 37910ft 347kts
20-Feb-21 16:46 39.737668 -106.985362 260 37912ft 347kts
20-Feb-21 16:47 39.724238 -107.110037 259 37915ft 348kts
20-Feb-21 16:48 39.710236 -107.234677 259 37920ft 349kts
20-Feb-21 16:49 39.695963 -107.359652 259 37925ft 350kts
20-Feb-21 16:50 39.681475 -107.485117 259 37939ft 353kts
20-Feb-21 16:51 39.666736 -107.611483 259 37944ft 354kts
20-Feb-21 16:52 39.651834 -107.738008 259 37947ft 355kts
20-Feb-21 16:53 39.636878 -107.864796 259 37952ft 356kts
20-Feb-21 16:54 39.621909 -107.991573 259 37955ft 355kts
20-Feb-21 16:55 39.606336 -108.118436 259 37960ft 356kts
20-Feb-21 16:56 39.590719 -108.244971 259 37964ft 356kts
20-Feb-21 16:57 39.574936 -108.371947 259 37968ft 356kts
20-Feb-21 16:58 39.558987 -108.498025 259 37971ft 355kts
20-Feb-21 16:59 39.542848 -108.624374 258 37945ft 355kts
20-Feb-21 17:00 39.527001 -108.750577 259 37929ft 355kts
20-Feb-21 17:01 39.511196 -108.877090 259 37920ft 356kts
20-Feb-21 17:02 39.494863 -109.004302 259 37907ft 357kts
20-Feb-21 17:03 39.478372 -109.131148 259 37910ft 358kts
20-Feb-21 17:03 39.464456 -109.237262 259 37914ft 359kts
20-Feb-21 17:05 39.444713 -109.386481 259 37920ft 361kts
20-Feb-21 17:06 39.427594 -109.514643 259 37927ft 362kts
20-Feb-21 17:06 39.413551 -109.621653 259 37927ft 363kts
20-Feb-21 17:07 39.396007 -109.750310 259 37936ft 363kts
20-Feb-21 17:09 39.375225 -109.900416 259 37980ft 364kts
20-Feb-21 17:10 39.357571 -110.029644 259 37988ft 365kts
20-Feb-21 17:11 39.339907 -110.159884 259 37995ft 368kts
20-Feb-21 17:11 39.325042 -110.268468 259 37998ft 368kts
20-Feb-21 17:12 39.307126 -110.398553 259 38002ft 368kts
20-Feb-21 17:13 39.289836 -110.528988 260 38005ft 368kts
20-Feb-21 17:14 39.272086 -110.659242 259 38006ft 368kts
20-Feb-21 17:15 39.253719 -110.789144 259 38017ft 369kts
20-Feb-21 17:16 39.235224 -110.919375 259 38026ft 369kts
20-Feb-21 17:17 39.216473 -111.050183 259 38030ft 371kts
20-Feb-21 17:18 39.197538 -111.180529 259 38035ft 372kts
20-Feb-21 17:19 39.178308 -111.311766 259 38040ft 372kts
20-Feb-21 17:20 39.159525 -111.443252 259 38045ft 373kts
20-Feb-21 17:21 39.140425 -111.574782 259 38066ft 374kts
20-Feb-21 17:22 39.120948 -111.706570 259 38079ft 374kts
20-Feb-21 17:23 39.101351 -111.837874 259 38112ft 374kts
20-Feb-21 17:24 39.081579 -111.969290 259 38126ft 374kts
20-Feb-21 17:25 39.061909 -112.101403 259 38129ft 379kts
20-Feb-21 17:26 39.041391 -112.234287 259 38133ft 378kts
20-Feb-21 17:27 39.020772 -112.367146 259 38134ft 378kts
20-Feb-21 17:28 38.999978 -112.499750 259 38135ft 377kts
20-Feb-21 17:29 38.978954 -112.632081 259 38136ft 379kts
20-Feb-21 17:30 38.957699 -112.764801 259 38135ft 378kts
20-Feb-21 17:31 38.936993 -112.897034 260 38135ft 378kts
20-Feb-21 17:32 38.915928 -113.029626 259 38136ft 378kts
20-Feb-21 17:33 38.894533 -113.162074 259 38138ft 379kts
20-Feb-21 17:34 38.872949 -113.294524 259 38139ft 379kts
20-Feb-21 17:35 38.851174 -113.427133 260 38141ft 379kts
20-Feb-21 17:36 38.829680 -113.559314 259 38144ft 379kts
20-Feb-21 17:37 38.807484 -113.691325 259 38156ft 378kts
20-Feb-21 17:38 38.785230 -113.822969 259 38165ft 378kts
20-Feb-21 17:39 38.762900 -113.954539 259 38170ft 378kts
20-Feb-21 17:40 38.740334 -114.085974 259 38178ft 381kts
20-Feb-21 17:41 38.717406 -114.218545 259 38183ft 380kts
20-Feb-21 17:42 38.695011 -114.350471 260 38189ft 380kts
20-Feb-21 17:43 38.672257 -114.482887 259 38193ft 381kts
20-Feb-21 17:44 38.649158 -114.615270 259 38201ft 381kts
20-Feb-21 17:45 38.626174 -114.747836 260 38204ft 382kts
20-Feb-21 17:46 38.602589 -114.880620 259 38209ft 383kts
20-Feb-21 17:47 38.578697 -115.013397 259 38217ft 384kts
20-Feb-21 17:48 38.554558 -115.146925 259 38215ft 385kts
20-Feb-21 17:49 38.530121 -115.280011 259 38219ft 385kts
20-Feb-21 17:50 38.505406 -115.413566 259 38221ft 386kts
20-Feb-21 17:51 38.480863 -115.546645 260 38223ft 386kts
20-Feb-21 17:52 38.456446 -115.680477 259 38226ft 386kts
20-Feb-21 17:53 38.431608 -115.813707 259 38246ft 386kts
20-Feb-21 17:54 38.406730 -115.946662 259 38247ft 385kts
20-Feb-21 17:55 38.381775 -116.079552 259 38257ft 386kts
20-Feb-21 17:56 38.356217 -116.212523 259 38255ft 386kts
20-Feb-21 17:57 38.330543 -116.345277 258 38253ft 387kts
20-Feb-21 17:58 38.300511 -116.477499 257 38251ft 388kts
20-Feb-21 17:59 38.270378 -116.609647 257 38248ft 389kts
20-Feb-21 18:00 38.240281 -116.741374 257 38245ft 389kts
20-Feb-21 18:01 38.210565 -116.873868 258 38242ft 389kts
20-Feb-21 18:02 38.180617 -117.006159 258 38241ft 390kts
20-Feb-21 18:03 38.149857 -117.138577 258 38240ft 390kts
20-Feb-21 18:04 38.119278 -117.270565 260 38242ft 388kts
20-Feb-21 18:05 38.099180 -117.405649 264 38248ft 390kts
20-Feb-21 18:06 38.079846 -117.540088 264 38257ft 390kts
20-Feb-21 18:07 38.059885 -117.675568 263 38279ft 388kts
20-Feb-21 18:08 38.040675 -117.809860 264 38312ft 387kts
20-Feb-21 18:09 38.021013 -117.943730 264 38323ft 384kts
20-Feb-21 18:10 38.000958 -118.078405 263 38330ft 392kts
20-Feb-21 18:11 37.980751 -118.212780 263 38332ft 385kts
20-Feb-21 18:12 37.960456 -118.346593 263 38336ft 389kts
20-Feb-21 18:13 37.940445 -118.480002 263 38342ft 385kts
20-Feb-21 18:14 37.919632 -118.613858 263 38340ft 386kts
20-Feb-21 18:15 37.898940 -118.746181 263 38343ft 381kts
20-Feb-21 18:16 37.882583 -118.878613 265 38344ft 383kts
20-Feb-21 18:17 37.867418 -119.011832 265 38348ft 385kts
20-Feb-21 18:18 37.851657 -119.146241 265 38350ft 384kts
20-Feb-21 18:19 37.836490 -119.279806 266 38355ft 386kts
20-Feb-21 18:20 37.820699 -119.415118 266 38356ft 385kts
20-Feb-21 18:21 37.804736 -119.549486 266 38365ft 387kts
20-Feb-21 18:22 37.788504 -119.684479 266 38371ft 387kts
20-Feb-21 18:23 37.772083 -119.819142 266 38378ft 389kts
20-Feb-21 18:24 37.755415 -119.954971 266 37970ft 391kts
20-Feb-21 18:25 37.739040 -120.090785 268 35481ft 391kts
20-Feb-21 18:26 37.722072 -120.224835 269 33467ft 383kts
20-Feb-21 18:27 37.705293 -120.356407 271 31516ft 377kts
20-Feb-21 18:28 37.689822 -120.486432 274 29631ft 371kts
20-Feb-21 18:29 37.674813 -120.614280 272 27714ft 363kts
20-Feb-21 18:30 37.660076 -120.738199 271 25855ft 353kts
20-Feb-21 18:31 37.645638 -120.859041 270 24013ft 342kts
20-Feb-21 18:32 37.631382 -120.975834 270 22188ft 332kts
20-Feb-21 18:33 37.616855 -121.085156 269 20440ft 299kts
20-Feb-21 18:34 37.602770 -121.189138 269 18761ft 310kts
20-Feb-21 18:35 37.588857 -121.294942 271 16956ft 293kts
20-Feb-21 18:36 37.577741 -121.395252 270 14894ft 286kts
20-Feb-21 18:37 37.566241 -121.493721 270 13179ft 281kts
20-Feb-21 18:38 37.555443 -121.585358 270 11533ft 271kts
20-Feb-21 18:39 37.538322 -121.678441 258 10006ft 275kts
20-Feb-21 18:40 37.516509 -121.768420 257 8497ft 268kts
20-Feb-21 18:41 37.495886 -121.854341 257 7316ft 251kts
20-Feb-21 18:42 37.474467 -121.937446 255 6489ft 257kts
20-Feb-21 18:43 37.467404 -122.019172 303 5877ft 212kts
20-Feb-21 18:44 37.494591 -122.080133 302 4838ft 191kts
20-Feb-21 18:45 37.517227 -122.133521 302 3911ft 164kts
20-Feb-21 18:46 37.537519 -122.181710 303 3087ft 143kts
20-Feb-21 18:47 37.555800 -122.225178 301 2342ft 139kts
20-Feb-21 18:48 37.573448 -122.267171 300 1600ft 125kts
20-Feb-21 18:49 37.588977 -122.304137 298 992ft 114kts
20-Feb-21 18:50 37.603563 -122.338877 297 395ft 111kts
20-Feb-21 18:51 37.616748 -122.370355 295 21ft 42kts
20-Feb-21 18:52 37.618897 -122.378653 255 21ft 10kts
20-Feb-21 18:53 37.617835 -122.380623 263 21ft 0kts
20-Feb-21 18:54 37.617835 -122.380623 263 21ft 0kts

Navigation Log

Ident Type
Flight plan parsing failed, navigation log unavailable